Time;durP1;ratioP1;P1;durP2;ratioP2;P2;SDS_P1;SDS_P2;PMS_P1;PMS_P2;Temp;Humidity;BMP_temperature;BMP_pressure;BME280_temperature;BME280_humidity;BME280_pressure;Samples;Min_cycle;Max_cycle;Signal;HPM_P1;HPM_P2
2022/07/05 00:00:57;;;;;;;5.43;2.92;;;;;;;21.07;56.36;100153.75;5070362;28;20056;-28
2022/07/05 00:03:22;;;;;;;5.65;2.60;;;;;;;21.28;55.60;100155.13;5088167;28;20056;-30
2022/07/05 00:05:48;;;;;;;7.82;2.97;;;;;;;20.82;56.40;100152.91;5088278;28;20089;-28
2022/07/05 00:08:13;;;;;;;6.90;2.63;;;;;;;20.57;57.56;100148.47;5088301;28;20032;-31
2022/07/05 00:10:39;;;;;;;5.57;2.58;;;;;;;20.43;57.39;100140.19;5069858;28;20028;-30
2022/07/05 00:13:05;;;;;;;6.72;2.67;;;;;;;20.45;57.50;100154.25;5069874;28;20028;-28
2022/07/05 00:15:31;;;;;;;5.88;2.70;;;;;;;21.05;56.83;100150.53;5068829;28;20035;-28
2022/07/05 00:17:57;;;;;;;6.25;2.63;;;;;;;20.77;57.25;100150.22;5088251;28;20659;-28
2022/07/05 00:20:23;;;;;;;5.47;2.50;;;;;;;20.57;57.92;100148.47;5088064;28;20024;-30
2022/07/05 00:22:49;;;;;;;6.68;2.55;;;;;;;20.96;56.90;100152.22;5069929;28;20414;-28
2022/07/05 00:25:14;;;;;;;5.97;2.63;;;;;;;20.29;58.70;100158.19;5087851;28;20021;-30
2022/07/05 00:27:40;;;;;;;5.07;3.05;;;;;;;20.65;58.57;100164.13;5087427;28;20028;-31
2022/07/05 00:30:06;;;;;;;4.38;2.53;;;;;;;20.31;58.22;100134.34;5088106;28;20028;-29
2022/07/05 00:32:32;;;;;;;7.28;2.70;;;;;;;20.22;59.82;100144.94;5069997;28;20475;-30
2022/07/05 00:34:57;;;;;;;5.40;2.63;;;;;;;20.11;59.26;100129.84;5088098;28;20081;-28
2022/07/05 00:37:23;;;;;;;5.45;2.55;;;;;;;20.10;59.37;100133.63;5088009;28;20395;-35
2022/07/05 00:39:48;;;;;;;6.97;3.20;;;;;;;20.35;59.58;100154.34;5087862;28;20035;-28
2022/07/05 00:42:14;;;;;;;7.13;2.80;;;;;;;20.52;58.92;100142.28;5087998;28;20083;-28
2022/07/05 00:44:41;;;;;;;8.52;3.10;;;;;;;20.34;59.06;100141.06;5088032;28;20028;-29
2022/07/05 00:47:09;;;;;;;5.53;2.78;;;;;;;20.10;60.31;100136.34;5069793;28;20028;-28
2022/07/05 00:49:36;;;;;;;5.50;2.92;;;;;;;20.19;59.64;100134.66;5087725;28;20024;-29
2022/07/05 00:52:03;;;;;;;6.53;3.10;;;;;;;20.23;59.02;100134.94;5069459;28;20032;-28
2022/07/05 00:54:31;;;;;;;5.80;2.80;;;;;;;20.10;59.31;100136.34;5086276;28;20032;-32
2022/07/05 00:56:57;;;;;;;6.88;2.90;;;;;;;20.31;59.41;100130.78;5069883;28;20028;-28
2022/07/05 00:59:23;;;;;;;6.55;2.60;;;;;;;20.03;59.37;100114.22;5087558;28;20070;-28
2022/07/05 01:01:48;;;;;;;5.47;2.78;;;;;;;20.10;59.66;100124.72;5086498;28;20407;-29
2022/07/05 01:04:14;;;;;;;7.50;3.00;;;;;;;20.27;58.78;100125.16;5087270;28;20111;-29
2022/07/05 01:06:42;;;;;;;7.00;3.05;;;;;;;20.04;59.33;100113.94;5087782;28;20056;-30
2022/07/05 01:09:13;;;;;;;6.55;3.60;;;;;;;19.63;60.69;100110.59;5069459;28;20026;-29
2022/07/05 01:11:40;;;;;;;5.80;2.90;;;;;;;19.26;62.63;100101.81;5088149;28;20055;-31
2022/07/05 01:14:10;;;;;;;5.05;2.60;;;;;;;19.12;63.32;100111.59;5069681;28;20567;-28
2022/07/05 01:16:38;;;;;;;5.22;3.17;;;;;;;18.98;64.17;100105.13;5070003;28;20028;-29
2022/07/05 01:19:06;;;;;;;7.03;3.00;;;;;;;18.80;64.08;100096.53;5087843;28;20178;-28
2022/07/05 01:21:37;;;;;;;4.20;2.40;;;;;;;18.93;64.32;100105.16;5086093;28;20062;-31
2022/07/05 01:24:03;;;;;;;4.90;2.60;;;;;;;19.21;63.46;100093.75;5069637;28;20024;-28
2022/07/05 01:26:29;;;;;;;5.45;2.50;;;;;;;19.43;63.10;100106.06;5089819;28;20475;-28
2022/07/05 01:28:55;;;;;;;7.30;3.00;;;;;;;19.30;63.04;100095.88;5073401;28;20032;-28
2022/07/05 01:31:20;;;;;;;5.53;2.72;;;;;;;19.57;62.47;100128.75;5091210;28;20035;-29
2022/07/05 01:33:46;;;;;;;6.10;2.60;;;;;;;19.43;63.14;100133.13;5091659;28;20802;-29
2022/07/05 01:36:12;;;;;;;5.40;2.75;;;;;;;19.37;62.62;100118.84;5091097;28;20043;-28
2022/07/05 01:38:38;;;;;;;5.95;2.70;;;;;;;19.66;61.97;100142.53;5073133;28;20410;-28
2022/07/05 01:41:03;;;;;;;4.82;2.72;;;;;;;19.71;61.95;100134.41;5090350;28;20604;-36
2022/07/05 01:43:29;;;;;;;4.53;2.60;;;;;;;19.48;62.21;100109.59;5091037;28;20027;-28
2022/07/05 01:45:57;;;;;;;5.10;2.75;;;;;;;19.92;60.93;100139.69;5091130;28;20089;-29
2022/07/05 01:48:23;;;;;;;5.05;2.70;;;;;;;19.58;61.50;100114.13;5072698;28;20028;-28
2022/07/05 01:50:53;;;;;;;5.80;3.03;;;;;;;19.71;60.97;100120.88;5090869;28;20031;-28
2022/07/05 01:53:22;;;;;;;4.97;2.85;;;;;;;19.71;61.51;100128.19;5091256;28;20028;-37
2022/07/05 01:55:48;;;;;;;5.18;2.60;;;;;;;19.67;61.72;100133.31;5073024;28;20119;-29
2022/07/05 01:58:13;;;;;;;7.55;3.00;;;;;;;19.63;61.76;100129.53;5090766;28;20153;-28
2022/07/05 02:00:46;;;;;;;5.53;2.85;;;;;;;19.49;61.69;100134.72;5089856;28;20036;-31
2022/07/05 02:03:14;;;;;;;7.07;2.90;;;;;;;19.13;62.69;100124.03;5072392;28;20016;-29
2022/07/05 02:05:40;;;;;;;5.88;2.92;;;;;;;19.09;62.80;100139.19;5090474;28;20028;-29
2022/07/05 02:08:06;;;;;;;6.43;3.08;;;;;;;18.89;63.63;100133.81;5090888;28;20032;-30
2022/07/05 02:10:31;;;;;;;5.82;2.92;;;;;;;18.71;64.50;100130.53;5090708;28;20399;-31
2022/07/05 02:12:57;;;;;;;6.93;3.22;;;;;;;19.24;62.79;100125.63;5090619;28;20032;-28
2022/07/05 02:15:22;;;;;;;7.20;3.35;;;;;;;19.20;62.62;100123.75;5089826;28;20028;-28
2022/07/05 02:17:48;;;;;;;6.22;2.80;;;;;;;18.69;64.46;100135.41;5089947;28;20020;-29
2022/07/05 02:20:13;;;;;;;5.32;2.72;;;;;;;18.64;65.70;100151.63;5090321;28;20491;-28
2022/07/05 02:22:39;;;;;;;5.68;2.88;;;;;;;18.79;64.91;100151.63;5090355;28;20058;-32
2022/07/05 02:25:05;;;;;;;10.75;3.17;;;;;;;18.82;64.42;100153.81;5090226;28;20028;-29
2022/07/05 02:27:30;;;;;;;7.57;3.20;;;;;;;18.79;64.00;100138.13;5071822;28;20116;-31
2022/07/05 02:29:56;;;;;;;7.75;3.30;;;;;;;18.66;64.50;100165.69;5090200;28;20612;-29
2022/07/05 02:32:21;;;;;;;7.57;3.13;;;;;;;18.50;65.11;100155.94;5090048;28;20555;-28
2022/07/05 02:34:47;;;;;;;7.07;3.20;;;;;;;18.44;65.87;100150.53;5090219;28;20047;-32
2022/07/05 02:37:12;;;;;;;6.13;3.38;;;;;;;18.12;67.22;100158.84;5089267;28;20443;-31
2022/07/05 02:39:37;;;;;;;6.15;3.53;;;;;;;18.10;67.33;100149.41;5090156;28;20191;-29
2022/07/05 02:42:03;;;;;;;9.77;3.42;;;;;;;18.32;67.11;100158.09;5089961;28;20427;-30
2022/07/05 02:44:29;;;;;;;6.22;3.30;;;;;;;18.22;66.17;100147.28;5090003;28;20052;-31
2022/07/05 02:46:54;;;;;;;7.13;2.85;;;;;;;18.08;66.90;100136.16;5089811;28;20028;-30
2022/07/05 02:49:19;;;;;;;6.05;3.33;;;;;;;18.41;66.07;100156.47;5089544;28;20031;-29
2022/07/05 02:51:45;;;;;;;6.95;3.78;;;;;;;18.83;65.37;100158.13;5090036;28;20068;-28
2022/07/05 02:54:10;;;;;;;9.68;3.58;;;;;;;18.72;65.00;100145.69;5071723;28;20038;-30
2022/07/05 02:56:36;;;;;;;8.20;3.65;;;;;;;18.53;65.68;100158.94;5061564;28;20047;-28
2022/07/05 02:59:01;;;;;;;9.32;3.45;;;;;;;18.37;66.37;100159.97;5087566;28;20028;-32
2022/07/05 03:01:27;;;;;;;14.18;4.20;;;;;;;18.16;66.67;100148.34;5089420;28;20108;-34
2022/07/05 03:03:52;;;;;;;8.20;3.28;;;;;;;18.20;67.41;100154.81;5088158;28;20544;-30
2022/07/05 03:06:17;;;;;;;9.05;3.78;;;;;;;18.57;66.52;100159.19;5088751;28;20078;-33
2022/07/05 03:08:43;;;;;;;9.50;3.85;;;;;;;18.56;65.99;100160.28;5088627;28;20048;-28
2022/07/05 03:11:08;;;;;;;11.43;4.65;;;;;;;18.70;66.46;100179.47;5088698;28;20097;-28
2022/07/05 03:13:34;;;;;;;7.50;3.70;;;;;;;18.78;64.96;100165.41;5088092;28;20031;-28
2022/07/05 03:15:59;;;;;;;8.77;4.35;;;;;;;18.44;66.12;100171.34;5088488;28;20456;-29
2022/07/05 03:18:25;;;;;;;7.60;3.75;;;;;;;18.08;67.30;100173.94;5088045;28;20077;-29
2022/07/05 03:20:50;;;;;;;7.07;3.55;;;;;;;17.75;69.09;100172.47;5070281;28;20120;-29
2022/07/05 03:23:15;;;;;;;6.40;3.88;;;;;;;17.60;69.91;100168.63;5088251;28;20032;-29
2022/07/05 03:25:41;;;;;;;9.75;4.43;;;;;;;17.48;70.38;100160.75;5087859;28;20921;-28
2022/07/05 03:28:06;;;;;;;6.93;3.15;;;;;;;17.10;72.38;100145.75;5088348;28;20024;-28
2022/07/05 03:30:32;;;;;;;8.13;3.85;;;;;;;17.17;73.86;100161.69;5086831;28;20032;-32
2022/07/05 03:32:57;;;;;;;9.50;3.53;;;;;;;17.30;72.42;100157.69;5086415;28;20020;-28
2022/07/05 03:35:23;;;;;;;26.25;15.45;;;;;;;17.57;72.17;100153.00;5087194;28;20043;-28
2022/07/05 03:37:48;;;;;;;6.80;3.53;;;;;;;17.86;70.25;100156.09;5087921;28;20047;-30
2022/07/05 03:40:14;;;;;;;9.98;3.63;;;;;;;17.99;69.77;100165.56;5087523;28;20053;-28
2022/07/05 03:42:39;;;;;;;11.35;3.78;;;;;;;17.94;70.49;100156.63;5086138;28;20031;-30
2022/07/05 03:45:05;;;;;;;7.28;4.00;;;;;;;18.13;70.87;100170.47;5086609;28;20024;-28
2022/07/05 03:47:30;;;;;;;7.43;3.50;;;;;;;18.30;70.49;100154.84;5068856;28;20065;-29
2022/07/05 03:49:56;;;;;;;12.52;3.60;;;;;;;18.07;71.66;100161.56;5087540;28;20030;-28
2022/07/05 03:52:21;;;;;;;6.53;3.20;;;;;;;18.04;72.20;100149.41;5087714;28;20089;-28
2022/07/05 03:54:47;;;;;;;7.45;3.20;;;;;;;17.95;73.25;100161.78;5087368;28;20032;-29
2022/07/05 03:57:13;;;;;;;6.90;3.40;;;;;;;18.33;71.55;100169.69;5087414;28;20047;-30
2022/07/05 03:59:38;;;;;;;6.00;3.47;;;;;;;18.47;71.42;100144.59;5085790;28;20201;-31
2022/07/05 04:02:04;;;;;;;5.43;3.22;;;;;;;18.29;72.63;100155.94;5087501;28;20047;-31
2022/07/05 04:04:30;;;;;;;6.35;3.38;;;;;;;18.64;71.44;100160.53;5087445;28;20110;-29
2022/07/05 04:06:55;;;;;;;7.18;3.58;;;;;;;18.79;71.29;100161.66;5085982;28;20544;-28
2022/07/05 04:09:20;;;;;;;7.82;3.63;;;;;;;18.75;70.86;100150.53;5086918;28;20028;-29
2022/07/05 04:11:46;;;;;;;5.45;3.72;;;;;;;18.85;70.77;100155.97;5087668;28;20070;-31
2022/07/05 04:14:11;;;;;;;6.85;3.70;;;;;;;19.07;70.33;100161.06;5086566;28;20036;-28
2022/07/05 04:16:37;;;;;;;9.35;3.50;;;;;;;19.05;68.83;100140.81;5086941;28;20032;-30
2022/07/05 04:19:03;;;;;;;5.20;3.63;;;;;;;19.36;68.29;100156.97;5087120;28;20032;-33
2022/07/05 04:21:28;;;;;;;8.50;3.58;;;;;;;19.33;68.03;100149.38;5086961;28;20031;-29
2022/07/05 04:23:54;;;;;;;8.05;4.07;;;;;;;19.46;67.17;100155.03;5085874;28;20074;-32
2022/07/05 04:26:19;;;;;;;6.70;3.95;;;;;;;19.58;65.82;100157.41;5086978;28;20028;-29
2022/07/05 04:28:45;;;;;;;6.28;3.42;;;;;;;19.82;64.99;100141.38;5087283;28;20027;-28
2022/07/05 04:31:10;;;;;;;6.18;3.53;;;;;;;19.83;64.69;100153.00;5086861;28;20519;-31
2022/07/05 04:33:36;;;;;;;6.05;3.33;;;;;;;19.93;64.76;100136.72;5069051;28;20119;-33
2022/07/05 04:36:01;;;;;;;10.20;3.72;;;;;;;19.91;65.03;100133.50;5086949;28;20059;-28
2022/07/05 04:38:27;;;;;;;9.50;3.97;;;;;;;19.92;65.29;100132.41;5087103;28;20506;-30
2022/07/05 04:40:52;;;;;;;8.07;4.10;;;;;;;20.21;63.70;100142.53;5086987;28;20054;-35
2022/07/05 04:43:18;;;;;;;6.60;3.72;;;;;;;20.28;62.69;100132.97;5086889;28;20085;-34
2022/07/05 04:45:43;;;;;;;9.63;3.88;;;;;;;20.33;62.70;100124.03;5087126;28;20056;-28
2022/07/05 04:48:09;;;;;;;7.85;3.80;;;;;;;20.62;61.93;100123.28;5085685;28;20032;-31
2022/07/05 04:50:34;;;;;;;7.88;4.00;;;;;;;20.53;62.68;100111.38;5086759;28;20044;-28
2022/07/05 04:53:00;;;;;;;10.52;4.10;;;;;;;20.74;61.38;100126.41;5076810;28;20034;-31
2022/07/05 04:55:25;;;;;;;10.77;4.60;;;;;;;20.80;62.55;100116.31;5087295;28;20060;-28
2022/07/05 04:57:51;;;;;;;7.15;3.60;;;;;;;20.93;62.01;100131.94;5087002;28;20032;-28
2022/07/05 05:00:16;;;;;;;8.10;3.58;;;;;;;21.00;62.28;100132.41;5086872;28;20073;-30
2022/07/05 05:02:42;;;;;;;8.10;4.03;;;;;;;21.27;60.89;100128.31;5091112;28;20475;-29
2022/07/05 05:05:08;;;;;;;8.57;3.97;;;;;;;21.13;60.20;100111.94;5091101;28;20028;-28
2022/07/05 05:07:35;;;;;;;9.07;4.10;;;;;;;21.34;60.36;100126.06;5090837;28;20031;-28
2022/07/05 05:10:00;;;;;;;5.03;3.03;;;;;;;21.38;57.21;100120.88;5090747;28;20039;-28
2022/07/05 05:12:26;;;;;;;5.95;3.42;;;;;;;21.40;58.30;100132.25;5089467;28;20028;-31
2022/07/05 05:14:51;;;;;;;8.30;3.90;;;;;;;21.69;58.14;100126.75;5090512;28;20032;-28
2022/07/05 05:17:17;;;;;;;7.53;3.40;;;;;;;21.66;57.64;100139.00;5090093;28;20035;-31
2022/07/05 05:19:44;;;;;;;5.93;3.05;;;;;;;21.74;58.15;100112.28;5071875;28;20035;-28
2022/07/05 05:22:09;;;;;;;6.22;3.65;;;;;;;21.94;57.91;100112.00;5090748;28;20165;-30
2022/07/05 05:24:35;;;;;;;6.25;3.63;;;;;;;22.24;56.75;100134.44;5090798;28;20482;-30
2022/07/05 05:27:01;;;;;;;6.80;3.25;;;;;;;22.42;55.62;100141.75;5090476;28;20483;-31
2022/07/05 05:29:27;;;;;;;7.43;3.10;;;;;;;22.27;55.56;100120.25;5090549;28;20107;-32
2022/07/05 05:31:53;;;;;;;6.65;3.30;;;;;;;22.53;55.47;100149.72;5072283;28;20131;-31
2022/07/05 05:34:18;;;;;;;7.53;3.25;;;;;;;22.74;55.78;100148.31;5072296;28;20062;-28
2022/07/05 05:36:44;;;;;;;5.55;2.85;;;;;;;22.95;55.99;100146.03;5090460;28;20815;-30
2022/07/05 05:39:10;;;;;;;6.13;2.70;;;;;;;22.99;55.56;100151.69;5090237;28;20031;-30
2022/07/05 05:41:35;;;;;;;6.45;3.20;;;;;;;23.08;55.13;100149.91;5089544;28;20055;-29
2022/07/05 05:44:02;;;;;;;5.82;2.72;;;;;;;23.02;55.03;100145.66;5089987;28;20036;-28
2022/07/05 05:46:27;;;;;;;5.88;2.58;;;;;;;23.34;55.57;100147.50;5071717;28;20066;-30
2022/07/05 05:48:53;;;;;;;8.93;3.13;;;;;;;23.18;55.03;100135.31;5090030;28;20756;-31
2022/07/05 05:51:18;;;;;;;8.30;3.13;;;;;;;23.17;56.37;100148.09;5089857;28;20030;-36
2022/07/05 05:53:45;;;;;;;8.85;2.90;;;;;;;23.40;55.17;100142.78;5072147;28;20032;-28
2022/07/05 05:56:12;;;;;;;8.18;3.03;;;;;;;23.63;53.86;100130.84;5089352;28;20085;-30
2022/07/05 05:58:37;;;;;;;4.03;2.42;;;;;;;23.66;53.84;100149.31;5071257;28;20028;-29
2022/07/05 06:01:03;;;;;;;8.93;3.13;;;;;;;23.52;54.38;100137.63;5089364;28;20084;-29
2022/07/05 06:03:28;;;;;;;5.88;3.08;;;;;;;23.79;53.10;100138.72;5089409;28;20561;-33
2022/07/05 06:05:54;;;;;;;7.00;2.90;;;;;;;23.84;53.73;100152.22;5089764;28;20024;-30
2022/07/05 06:08:20;;;;;;;5.78;3.22;;;;;;;23.81;53.93;100139.22;5071406;28;20034;-32
2022/07/05 06:10:45;;;;;;;5.97;2.92;;;;;;;23.99;53.42;100146.44;5089603;28;20036;-31
2022/07/05 06:13:13;;;;;;;9.40;3.10;;;;;;;24.12;52.02;100152.16;5089355;28;20051;-30
2022/07/05 06:15:39;;;;;;;;;;;;;;;24.13;51.98;100145.59;5089671;28;20032;-31
2022/07/05 06:18:07;;;;;;;5.68;2.80;;;;;;;24.47;50.03;100148.56;5089570;28;19965;-30
2022/07/05 06:20:34;;;;;;;4.72;2.90;;;;;;;24.44;51.65;100146.47;5071177;28;20039;-30
2022/07/05 06:23:01;;;;;;;8.17;2.90;;;;;;;24.61;51.20;100153.19;5071171;28;20477;-32
2022/07/05 06:25:27;;;;;;;5.03;2.90;;;;;;;24.80;50.66;100142.06;5088959;28;20042;-32
2022/07/05 06:27:55;;;;;;;5.22;3.38;;;;;;;25.11;48.42;100125.72;5087662;28;20366;-31
2022/07/05 06:30:22;;;;;;;7.00;3.13;;;;;;;25.00;46.98;100135.28;5071141;28;20031;-28
2022/07/05 06:32:49;;;;;;;11.93;3.65;;;;;;;24.95;48.40;100149.88;5088710;28;20055;-32
2022/07/05 06:35:15;;;;;;;7.40;3.45;;;;;;;24.82;47.56;100145.31;5070955;28;20052;-29
2022/07/05 06:37:45;;;;;;;5.85;3.97;;;;;;;24.97;48.00;100146.84;5070683;28;20036;-32
2022/07/05 06:40:12;;;;;;;7.97;3.97;;;;;;;24.89;49.37;100139.38;5070534;28;20028;-31
2022/07/05 06:42:38;;;;;;;7.53;3.83;;;;;;;24.93;49.26;100129.47;5053940;28;20036;-29
2022/07/05 06:45:05;;;;;;;7.90;3.58;;;;;;;24.83;46.89;100136.81;5088936;28;20090;-30
2022/07/05 06:47:31;;;;;;;9.45;4.15;;;;;;;24.91;49.20;100127.06;5088801;28;20483;-30
2022/07/05 06:49:58;;;;;;;6.80;4.28;;;;;;;24.99;47.75;100129.03;5089141;28;20031;-28
2022/07/05 06:52:23;;;;;;;8.80;3.60;;;;;;;25.42;47.17;100138.53;5070410;28;20096;-30
2022/07/05 06:54:49;;;;;;;7.10;4.00;;;;;;;25.28;47.45;100137.84;5088766;28;20035;-30
2022/07/05 06:57:18;;;;;;;5.32;3.58;;;;;;;25.22;47.65;100137.19;5088676;28;20039;-28
2022/07/05 06:59:43;;;;;;;8.93;3.95;;;;;;;25.32;47.69;100125.97;5087499;28;20036;-29
2022/07/05 07:02:09;;;;;;;8.45;3.63;;;;;;;25.59;47.45;100127.66;5070696;28;20027;-29
2022/07/05 07:04:34;;;;;;;6.97;3.90;;;;;;;25.63;46.61;100114.97;5088989;28;20032;-30
2022/07/05 07:06:59;;;;;;;9.52;4.30;;;;;;;25.75;46.68;100128.00;5089032;28;20109;-29
2022/07/05 07:09:25;;;;;;;7.10;3.83;;;;;;;25.70;46.50;100127.34;5088349;28;20705;-31
2022/07/05 07:11:50;;;;;;;7.80;4.25;;;;;;;25.86;45.69;100125.75;5087874;28;20055;-29
2022/07/05 07:14:16;;;;;;;7.93;4.10;;;;;;;25.89;44.59;100119.66;5088310;28;20063;-35
2022/07/05 07:16:42;;;;;;;8.45;4.00;;;;;;;26.16;45.18;100134.97;5088643;28;20032;-29
2022/07/05 07:19:08;;;;;;;9.82;3.67;;;;;;;26.42;45.66;100129.50;5053619;28;20580;-29
2022/07/05 07:21:33;;;;;;;6.70;4.03;;;;;;;26.46;43.88;100138.66;5088244;28;20031;-31
2022/07/05 07:23:59;;;;;;;10.90;3.85;;;;;;;26.59;44.27;100116.94;5087970;28;20024;-29
2022/07/05 07:26:24;;;;;;;5.90;4.40;;;;;;;26.88;44.52;100126.34;5087528;28;20471;-29
2022/07/05 07:28:50;;;;;;;8.20;4.45;;;;;;;26.97;43.00;100119.72;5088353;28;20038;-30
2022/07/05 07:31:15;;;;;;;6.60;4.50;;;;;;;26.84;43.45;100124.25;5088462;28;20028;-31
2022/07/05 07:33:41;;;;;;;7.22;4.03;;;;;;;27.03;43.98;100114.84;5088019;28;20016;-29
2022/07/05 07:36:07;;;;;;;7.50;4.20;;;;;;;27.19;42.76;100112.38;5086622;28;20098;-28
2022/07/05 07:38:32;;;;;;;6.97;3.88;;;;;;;27.32;44.20;100105.09;5088058;28;20031;-31
2022/07/05 07:40:59;;;;;;;7.38;3.83;;;;;;;27.48;44.00;100092.41;5087740;28;20048;-33
2022/07/05 07:43:25;;;;;;;6.43;4.03;;;;;;;27.74;42.98;100100.47;5087836;28;20030;-30
2022/07/05 07:45:50;;;;;;;7.97;4.40;;;;;;;27.70;41.79;100109.69;5088058;28;20032;-29
2022/07/05 07:48:16;;;;;;;7.72;4.15;;;;;;;27.81;43.14;100102.69;5087336;28;20038;-33
2022/07/05 07:50:41;;;;;;;7.88;4.07;;;;;;;27.91;41.34;100088.63;5069313;28;20307;-28
2022/07/05 07:53:07;;;;;;;8.98;4.35;;;;;;;27.44;41.35;100086.00;5087532;28;20111;-29
2022/07/05 07:55:32;;;;;;;6.88;3.75;;;;;;;27.61;41.21;100091.38;5087642;28;20478;-28
2022/07/05 07:57:58;;;;;;;6.80;3.75;;;;;;;27.90;40.40;100095.22;5086311;28;20403;-29
2022/07/05 08:00:23;;;;;;;10.73;4.57;;;;;;;28.15;41.64;100107.09;5087837;28;20028;-34
2022/07/05 08:02:48;;;;;;;7.10;4.13;;;;;;;27.97;38.55;100098.25;5087580;28;20113;-29
2022/07/05 08:05:14;;;;;;;6.75;4.50;;;;;;;28.41;39.12;100103.31;5087384;28;20028;-29
2022/07/05 08:07:39;;;;;;;9.63;4.35;;;;;;;28.73;39.85;100104.47;5087266;28;20020;-29
2022/07/05 08:10:06;;;;;;;6.63;3.90;;;;;;;28.62;40.66;100108.78;5087756;28;20031;-29
2022/07/05 08:12:32;;;;;;;6.47;3.80;;;;;;;28.42;39.70;100103.00;5069270;28;20028;-31
2022/07/05 08:14:57;;;;;;;11.18;3.70;;;;;;;28.63;40.37;100099.41;5087778;28;20522;-29
2022/07/05 08:17:23;;;;;;;7.38;4.32;;;;;;;28.85;38.44;100109.16;5087304;28;20035;-29
2022/07/05 08:22:33;;;;;;;8.00;4.20;;;;;;;28.97;40.38;100100.13;5087420;28;20110;-29
2022/07/05 08:24:58;;;;;;;5.65;3.90;;;;;;;28.99;38.31;100120.63;5069244;28;20024;-28
2022/07/05 08:27:24;;;;;;;6.90;3.92;;;;;;;28.86;37.59;100105.28;5086831;28;20047;-33
2022/07/05 08:29:49;;;;;;;6.35;3.53;;;;;;;29.24;38.41;100112.44;5069042;28;20112;-29
2022/07/05 08:32:16;;;;;;;8.02;3.80;;;;;;;29.65;38.47;100103.09;5087216;28;20032;-33
2022/07/05 08:34:41;;;;;;;6.70;3.65;;;;;;;29.73;38.15;100114.31;5068917;28;20568;-28
2022/07/05 08:37:07;;;;;;;6.72;3.88;;;;;;;29.97;39.61;100119.75;5072072;28;20027;-30
2022/07/05 08:39:33;;;;;;;6.82;3.78;;;;;;;30.07;37.83;100117.66;5073023;28;20081;-29
2022/07/05 08:42:00;;;;;;;7.97;4.55;;;;;;;30.19;39.64;100099.16;5091199;28;20051;-32
2022/07/05 08:44:33;;;;;;;9.02;3.90;;;;;;;30.00;38.89;100108.06;5091239;28;20064;-29
2022/07/05 08:47:02;;;;;;;6.47;3.92;;;;;;;30.63;38.61;100110.22;5091236;28;20055;-30
2022/07/05 08:49:32;;;;;;;8.15;3.83;;;;;;;30.71;39.52;100121.38;5072454;28;20044;-35
2022/07/05 08:51:59;;;;;;;5.88;3.60;;;;;;;30.71;38.00;100113.13;5073008;28;20028;-30
2022/07/05 08:54:25;;;;;;;6.20;3.53;;;;;;;30.97;35.13;100115.41;5091368;28;20094;-32
2022/07/05 08:56:51;;;;;;;5.50;3.15;;;;;;;31.11;35.79;100099.22;5091096;28;20090;-30
2022/07/05 08:59:16;;;;;;;5.18;3.42;;;;;;;31.00;33.01;100104.47;5072705;28;20024;-29
2022/07/05 09:01:45;;;;;;;5.20;2.50;;;;;;;31.33;30.23;100113.50;5090901;28;20506;-31
2022/07/05 09:04:13;;;;;;;4.07;2.70;;;;;;;31.31;32.65;100107.56;5071768;28;20023;-30
2022/07/05 09:06:39;;;;;;;5.88;2.67;;;;;;;31.39;30.24;100109.31;5091119;28;20032;-29
2022/07/05 09:09:06;;;;;;;6.47;2.83;;;;;;;31.38;33.55;100119.53;5072635;28;20028;-36
2022/07/05 09:11:41;;;;;;;8.13;3.30;;;;;;;30.83;33.43;100113.03;5072215;28;20276;-29
2022/07/05 09:14:20;;;;;;;7.50;3.40;;;;;;;31.11;31.48;100088.19;5072377;28;20028;-32
2022/07/05 09:16:45;;;;;;;4.82;2.95;;;;;;;31.63;31.00;100100.84;5072380;28;20028;-30
2022/07/05 09:19:11;;;;;;;6.03;2.97;;;;;;;31.83;30.06;100100.84;5091071;28;20039;-30
2022/07/05 09:21:36;;;;;;;6.47;3.17;;;;;;;32.07;29.39;100101.75;5090566;28;20062;-32
2022/07/05 09:24:07;;;;;;;7.40;3.40;;;;;;;32.12;29.70;100101.44;5090688;28;20034;-29
2022/07/05 09:26:34;;;;;;;11.20;3.13;;;;;;;31.90;30.82;100101.00;5090458;28;20024;-32
2022/07/05 09:29:00;;;;;;;6.50;3.50;;;;;;;32.15;29.75;100084.19;5072078;28;20899;-30
2022/07/05 09:31:29;;;;;;;15.00;3.83;;;;;;;32.50;28.94;100094.28;5090572;28;20036;-33
2022/07/05 09:34:04;;;;;;;6.00;3.30;;;;;;;32.37;29.67;100061.34;5072221;28;20035;-29
2022/07/05 09:36:54;;;;;;;8.65;3.08;;;;;;;32.62;29.74;100074.81;5072066;28;20024;-30
2022/07/05 09:39:28;;;;;;;6.20;3.35;;;;;;;32.67;30.09;100077.25;5071741;28;20099;-31
2022/07/05 09:42:13;;;;;;;8.35;3.50;;;;;;;33.10;31.15;100066.13;5089835;28;20074;-34
2022/07/05 09:44:43;;;;;;;5.75;3.10;;;;;;;32.62;29.90;100058.25;5081446;28;20077;-30
2022/07/05 09:47:11;;;;;;;6.30;3.13;;;;;;;32.84;29.02;100070.44;5089824;28;20093;-30
2022/07/05 09:50:06;;;;;;;4.47;2.97;;;;;;;33.18;31.37;100068.66;5090158;28;20115;-31
2022/07/05 09:52:40;;;;;;;4.77;3.17;;;;;;;32.75;29.25;100061.59;5070366;28;20047;-32
2022/07/05 09:55:16;;;;;;;7.13;3.00;;;;;;;32.83;29.48;100064.13;5071885;28;20035;-29
2022/07/05 09:57:43;;;;;;;5.10;3.03;;;;;;;32.70;30.28;100059.97;5071415;28;20043;-29
2022/07/05 10:00:15;;;;;;;5.55;3.20;;;;;;;32.83;28.00;100035.69;5071542;28;20084;-29
2022/07/05 10:02:47;;;;;;;5.65;3.22;;;;;;;32.65;29.28;100038.16;5090345;28;20024;-33
2022/07/05 10:05:32;;;;;;;6.10;2.92;;;;;;;33.23;30.98;100048.19;5089774;28;20046;-29
2022/07/05 10:08:01;;;;;;;6.93;3.28;;;;;;;33.36;29.00;100032.16;5071424;28;20500;-30
2022/07/05 10:10:32;;;;;;;4.68;3.20;;;;;;;33.73;30.53;100037.00;5071346;28;20024;-30
2022/07/05 10:13:03;;;;;;;8.35;3.22;;;;;;;33.71;29.07;100039.34;5070964;28;20054;-29
2022/07/05 10:15:31;;;;;;;7.35;3.58;;;;;;;33.60;30.20;100039.97;5071368;28;20483;-31
2022/07/05 10:17:59;;;;;;;6.00;3.38;;;;;;;33.56;29.29;100028.06;5070666;28;20032;-31
2022/07/05 10:20:37;;;;;;;7.93;3.70;;;;;;;33.66;29.25;100043.25;5089539;28;20036;-34
2022/07/05 10:23:09;;;;;;;6.28;3.42;;;;;;;33.89;28.06;100045.09;5089240;28;20881;-30
2022/07/05 10:25:40;;;;;;;8.55;3.47;;;;;;;33.84;29.97;100024.09;5070693;28;20123;-31
2022/07/05 10:28:07;;;;;;;7.57;3.55;;;;;;;34.02;29.27;100021.50;5071126;28;20035;-29
2022/07/05 10:30:33;;;;;;;12.18;3.55;;;;;;;33.85;27.95;100035.97;5089847;28;20090;-29
2022/07/05 10:33:01;;;;;;;5.13;3.43;;;;;;;33.90;30.73;100025.34;5071006;28;20420;-29
2022/07/05 10:35:27;;;;;;;4.72;3.10;;;;;;;34.33;28.07;100025.81;5071087;28;20458;-35
2022/07/05 10:37:54;;;;;;;6.30;3.28;;;;;;;34.44;29.07;100025.91;5089255;28;20591;-32
2022/07/05 10:40:19;;;;;;;6.90;3.77;;;;;;;34.68;29.52;100029.31;5070735;28;20131;-34
2022/07/05 10:43:07;;;;;;;4.85;3.45;;;;;;;34.49;28.74;100022.81;5089246;28;20111;-29
2022/07/05 10:45:35;;;;;;;5.88;3.22;;;;;;;34.59;26.80;100026.81;5070991;28;20039;-29
2022/07/05 10:48:09;;;;;;;4.72;3.40;;;;;;;34.42;27.71;100023.50;5070758;28;20032;-29
2022/07/05 10:50:55;;;;;;;8.70;3.58;;;;;;;34.60;26.14;100020.91;5089338;28;20035;-34
2022/07/05 10:53:29;;;;;;;6.72;3.45;;;;;;;34.58;26.85;100014.16;5070465;28;20177;-28
2022/07/05 10:56:15;;;;;;;6.32;3.40;;;;;;;34.94;27.69;100025.50;5089184;28;20039;-31
2022/07/05 10:58:47;;;;;;;8.40;3.88;;;;;;;34.81;26.99;100014.75;5086655;28;20047;-29
2022/07/05 11:01:16;;;;;;;8.23;3.35;;;;;;;34.78;26.10;100021.06;5070620;28;20423;-32
2022/07/05 11:03:45;;;;;;;7.32;3.80;;;;;;;34.76;28.41;100004.03;5087139;28;20085;-30
2022/07/05 11:06:24;;;;;;;5.72;3.33;;;;;;;35.00;28.54;100007.34;5088776;28;20020;-31
2022/07/05 11:09:08;;;;;;;5.90;3.10;;;;;;;35.59;27.09;100013.63;5088805;28;20028;-30
2022/07/05 11:11:34;;;;;;;5.88;3.58;;;;;;;35.33;25.72;100008.34;5087038;28;20035;-29
2022/07/05 11:14:04;;;;;;;5.20;3.30;;;;;;;35.31;24.56;99985.75;5087349;28;20568;-30
2022/07/05 11:16:36;;;;;;;7.32;3.85;;;;;;;35.57;27.29;99991.03;5070323;28;20070;-30
2022/07/05 11:19:10;;;;;;;6.63;3.90;;;;;;;34.80;24.71;99976.38;5088099;28;20105;-30
2022/07/05 11:21:56;;;;;;;6.57;3.42;;;;;;;35.19;26.54;99971.06;5065478;28;20115;-31
2022/07/05 11:24:27;;;;;;;7.28;3.42;;;;;;;34.74;27.38;99964.84;5088290;28;20109;-36
2022/07/05 11:26:57;;;;;;;5.85;3.25;;;;;;;35.26;27.05;99980.59;5088284;28;20032;-34